createdAt,value
2019-03-08T00:02:26.176Z,61.47
2019-03-08T00:04:56.650Z,61.13
2019-03-08T00:07:27.079Z,64.27
2019-03-08T00:09:57.716Z,71.63
2019-03-08T00:12:38.997Z,70.23
2019-03-08T00:15:11.218Z,72.97
2019-03-08T00:17:44.013Z,71.13
2019-03-08T00:20:14.701Z,65.77
2019-03-08T00:22:45.123Z,61.67
2019-03-08T00:25:17.063Z,62.13
2019-03-08T00:27:47.468Z,60.53
2019-03-08T00:30:17.881Z,57.27
2019-03-08T00:32:48.514Z,56.27
2019-03-08T00:35:18.942Z,50.13
2019-03-08T00:37:50.078Z,57.37
2019-03-08T00:40:20.483Z,53.07
2019-03-08T00:42:50.909Z,50.40
2019-03-08T00:45:21.732Z,57.57
2019-03-08T00:47:52.141Z,52.20
2019-03-08T00:50:24.301Z,50.93
2019-03-08T00:52:54.723Z,53.10
2019-03-08T00:55:25.157Z,48.67
2019-03-08T00:57:55.862Z,46.93
2019-03-08T01:00:27.314Z,51.17
2019-03-08T01:02:57.827Z,47.13
2019-03-08T01:05:30.168Z,43.77
2019-03-08T01:08:00.666Z,41.90
2019-03-08T01:10:31.294Z,46.27
2019-03-08T01:13:01.789Z,43.90
2019-03-08T01:15:32.257Z,45.43
2019-03-08T01:18:02.736Z,44.40
2019-03-08T01:20:33.197Z,53.47
2019-03-08T01:23:04.426Z,52.63
2019-03-08T01:25:36.332Z,49.93
2019-03-08T01:28:09.876Z,51.23
2019-03-08T01:30:41.200Z,52.07
2019-03-08T01:33:13.240Z,54.20
2019-03-08T01:35:44.861Z,55.03
2019-03-08T01:38:15.278Z,55.57
2019-03-08T01:40:45.722Z,60.67
2019-03-08T01:43:17.018Z,59.80
2019-03-08T01:45:48.614Z,60.80
2019-03-08T01:48:19.075Z,61.57
2019-03-08T01:50:50.407Z,61.20
2019-03-08T01:53:22.382Z,55.10
2019-03-08T01:55:53.833Z,65.30
2019-03-08T01:58:24.263Z,58.67
2019-03-08T02:00:54.731Z,58.17
2019-03-08T02:03:25.699Z,59.17
2019-03-08T02:05:56.096Z,65.27
2019-03-08T02:08:34.737Z,60.20
2019-03-08T02:11:05.199Z,61.00
2019-03-08T02:13:37.070Z,64.50
2019-03-08T02:16:07.615Z,62.73
2019-03-08T02:18:39.625Z,65.47
2019-03-08T02:21:10.091Z,59.93
2019-03-08T02:23:40.504Z,60.87
2019-03-08T02:26:10.998Z,59.97
2019-03-08T02:28:41.439Z,63.70
2019-03-08T02:31:11.864Z,62.13
2019-03-08T02:33:42.287Z,55.97
2019-03-08T02:36:14.015Z,55.73
2019-03-08T02:38:44.423Z,58.07
2019-03-08T02:41:14.901Z,63.20
2019-03-08T02:43:45.375Z,54.77
2019-03-08T02:46:15.826Z,63.07
2019-03-08T02:48:46.818Z,58.53
2019-03-08T02:51:18.533Z,57.37
2019-03-08T02:53:48.974Z,54.80
2019-03-08T02:56:20.054Z,54.17
2019-03-08T02:58:51.454Z,62.10
2019-03-08T03:01:23.183Z,54.10
2019-03-08T03:03:53.715Z,48.27
2019-03-08T03:06:27.269Z,46.97
2019-03-08T03:08:57.812Z,43.97
2019-03-08T03:11:29.831Z,56.97
2019-03-08T03:14:00.261Z,52.30
2019-03-08T03:16:30.860Z,50.30
2019-03-08T03:19:02.253Z,52.10
2019-03-08T03:21:32.694Z,49.10
2019-03-08T03:24:03.234Z,44.63
2019-03-08T03:26:33.754Z,48.07
2019-03-08T03:29:04.166Z,57.00
2019-03-08T03:31:34.653Z,48.23
2019-03-08T03:34:06.613Z,40.27
2019-03-08T03:36:37.147Z,44.10
2019-03-08T03:39:07.619Z,42.70
2019-03-08T03:41:38.092Z,44.33
2019-03-08T03:44:08.592Z,46.17
2019-03-08T03:46:39.067Z,46.20
2019-03-08T03:49:09.547Z,44.07
2019-03-08T03:51:40.067Z,46.17
2019-03-08T03:54:10.571Z,50.87
2019-03-08T03:56:40.984Z,41.60
2019-03-08T03:59:11.454Z,41.37
2019-03-08T04:01:43.519Z,41.77
2019-03-08T04:04:13.979Z,33.63
2019-03-08T04:06:44.390Z,38.93
2019-03-08T04:09:14.901Z,41.20
2019-03-08T04:11:45.336Z,38.60
2019-03-08T04:14:15.836Z,44.33
2019-03-08T04:16:46.445Z,57.93
2019-03-08T04:19:16.905Z,45.80
2019-03-08T04:21:47.343Z,45.13
2019-03-08T04:24:17.776Z,42.53
2019-03-08T04:26:49.781Z,43.97
2019-03-08T04:29:21.156Z,44.67
2019-03-08T04:31:51.592Z,39.40
2019-03-08T04:34:39.113Z,41.03
2019-03-08T04:37:09.517Z,40.77
2019-03-08T04:39:39.971Z,39.13
2019-03-08T04:42:10.417Z,37.40
2019-03-08T04:44:41.460Z,40.00
2019-03-08T04:47:13.395Z,34.03
2019-03-08T04:49:43.988Z,33.33
2019-03-08T04:52:14.375Z,34.10
2019-03-08T04:54:44.785Z,35.27
2019-03-08T04:57:15.157Z,35.17
2019-03-08T04:59:46.647Z,35.47
2019-03-08T05:02:17.871Z,40.53
2019-03-08T05:04:48.321Z,37.93
2019-03-08T05:07:18.797Z,31.93
2019-03-08T05:09:49.256Z,34.73
2019-03-08T05:12:19.780Z,37.00
2019-03-08T05:14:50.315Z,33.53
2019-03-08T05:17:22.867Z,32.23
2019-03-08T05:19:54.569Z,31.07
2019-03-08T05:22:29.730Z,32.90
2019-03-08T05:25:02.693Z,41.47
2019-03-08T05:27:33.603Z,34.60
2019-03-08T05:30:04.798Z,38.63
2019-03-08T05:32:38.540Z,36.83
2019-03-08T05:35:09.889Z,40.70
2019-03-08T05:37:43.404Z,32.87
2019-03-08T05:40:17.807Z,33.77
2019-03-08T05:42:48.461Z,30.80
2019-03-08T05:45:20.409Z,34.93
2019-03-08T05:47:51.561Z,33.53
2019-03-08T05:50:28.660Z,31.30
2019-03-08T05:52:59.278Z,34.60
2019-03-08T05:58:21.322Z,35.27
2019-03-08T06:00:53.341Z,35.50
2019-03-08T06:03:29.218Z,35.13
2019-03-08T06:06:07.684Z,38.57
2019-03-08T06:08:41.189Z,34.23
2019-03-08T06:11:12.080Z,38.83
2019-03-08T06:13:42.618Z,34.90
2019-03-08T06:16:14.203Z,37.27
2019-03-08T06:18:46.092Z,36.07
2019-03-08T06:21:17.951Z,34.10
2019-03-08T06:23:53.348Z,33.00
2019-03-08T06:26:24.445Z,31.83
2019-03-08T06:29:00.332Z,31.73
2019-03-08T06:31:32.315Z,30.37
2019-03-08T06:34:10.234Z,29.47
2019-03-08T06:36:42.214Z,34.50
2019-03-08T06:39:15.177Z,31.77
2019-03-08T06:41:47.861Z,27.20
2019-03-08T06:47:09.842Z,29.80
2019-03-08T06:49:43.304Z,27.87
2019-03-08T06:52:14.078Z,35.83
2019-03-08T06:57:36.284Z,36.20
2019-03-08T07:00:34.146Z,36.60
2019-03-08T07:03:07.933Z,34.67
2019-03-08T07:05:41.521Z,38.67
2019-03-08T07:08:13.673Z,37.40
2019-03-08T07:10:49.293Z,40.67
2019-03-08T07:13:28.828Z,35.77
2019-03-08T07:16:14.955Z,30.43
2019-03-08T07:18:46.571Z,30.77
2019-03-08T07:24:33.014Z,27.63
2019-03-08T07:27:25.487Z,30.17
2019-03-08T07:30:13.932Z,40.73
2019-03-08T07:32:51.248Z,25.97
2019-03-08T07:35:55.551Z,24.50
2019-03-08T07:38:58.287Z,32.30
2019-03-08T07:41:37.714Z,31.07
2019-03-08T07:44:38.959Z,30.47
2019-03-08T07:47:49.486Z,25.00
2019-03-08T07:50:05.474Z,20.70
2019-03-08T07:52:55.292Z,25.33
2019-03-08T07:55:47.527Z,39.70
2019-03-08T07:58:37.079Z,22.70
2019-03-08T08:01:21.869Z,38.97
2019-03-08T08:04:11.865Z,24.37
2019-03-08T08:06:59.401Z,26.30
2019-03-08T08:09:46.678Z,33.67
2019-03-08T08:12:24.326Z,27.93
2019-03-08T08:15:02.752Z,20.87
2019-03-08T08:20:40.498Z,24.73
2019-03-08T08:23:21.433Z,16.10
2019-03-08T08:26:11.636Z,22.40
2019-03-08T08:29:12.904Z,26.83
2019-03-08T08:32:06.353Z,23.33
2019-03-08T08:34:41.335Z,16.77
2019-03-08T08:37:31.606Z,11.83
2019-03-08T08:40:22.886Z,25.20
2019-03-08T08:43:12.307Z,22.87
2019-03-08T08:46:09.515Z,21.63
2019-03-08T08:52:00.499Z,19.17
2019-03-08T08:54:43.842Z,34.33
2019-03-08T08:57:34.135Z,21.03
2019-03-08T09:00:19.608Z,15.83
2019-03-08T09:03:20.140Z,15.27
2019-03-08T09:06:02.092Z,20.27
2019-03-08T09:08:53.689Z,15.23
2019-03-08T09:11:52.515Z,11.83
2019-03-08T09:14:53.949Z,23.57
2019-03-08T09:17:41.812Z,22.80
2019-03-08T09:20:32.586Z,16.77
2019-03-08T09:23:20.755Z,17.63
2019-03-08T09:26:11.965Z,11.07
2019-03-08T09:28:45.740Z,20.03
2019-03-08T09:31:35.265Z,23.87
2019-03-08T09:34:19.269Z,15.90
2019-03-08T09:36:56.981Z,13.07
2019-03-08T09:39:47.252Z,11.40
2019-03-08T09:42:38.582Z,17.50
2019-03-08T09:45:21.412Z,24.50
2019-03-08T09:48:00.933Z,12.00
2019-03-08T09:50:49.044Z,36.50
2019-03-08T09:53:25.662Z,31.93
2019-03-08T09:56:01.242Z,13.97
2019-03-08T09:58:35.742Z,19.87
2019-03-08T10:01:23.855Z,11.47
2019-03-08T10:04:08.995Z,11.23
2019-03-08T10:06:49.917Z,24.43
2019-03-08T10:09:41.021Z,22.87
2019-03-08T10:12:18.749Z,41.97
2019-03-08T10:15:01.748Z,20.00
2019-03-08T10:17:43.866Z,15.27
2019-03-08T10:20:30.767Z,17.10
2019-03-08T10:23:19.948Z,19.00
2019-03-08T10:25:47.669Z,21.73
2019-03-08T10:28:27.721Z,21.43
2019-03-08T10:31:02.899Z,20.13
2019-03-08T10:33:46.925Z,15.33
2019-03-08T10:36:42.040Z,31.10
2019-03-08T10:39:35.602Z,21.53
2019-03-08T10:42:23.644Z,12.73
2019-03-08T10:45:02.617Z,20.17
2019-03-08T10:47:55.781Z,13.87
2019-03-08T10:50:21.201Z,13.20
2019-03-08T10:52:58.504Z,15.10
2019-03-08T10:55:49.335Z,20.13
2019-03-08T10:58:29.959Z,13.63
2019-03-08T11:01:08.136Z,6.97
2019-03-08T11:03:55.807Z,22.70
2019-03-08T11:06:34.035Z,16.77
2019-03-08T11:09:08.230Z,26.63
2019-03-08T11:11:49.209Z,12.30
2019-03-08T11:14:37.264Z,21.37
2019-03-08T11:17:28.208Z,17.30
2019-03-08T11:20:26.658Z,17.80
2019-03-08T11:23:11.689Z,20.70
2019-03-08T11:25:53.083Z,39.50
2019-03-08T11:28:51.188Z,19.13
2019-03-08T11:32:05.314Z,24.83
2019-03-08T11:34:13.290Z,17.30
2019-03-08T11:36:56.012Z,27.17
2019-03-08T11:39:45.365Z,16.50
2019-03-08T11:42:25.915Z,34.83
2019-03-08T11:45:07.442Z,18.17
2019-03-08T11:48:05.043Z,16.50
2019-03-08T11:50:46.616Z,11.43
2019-03-08T11:53:40.299Z,22.23
2019-03-08T11:56:21.560Z,20.87
2019-03-08T11:59:02.913Z,29.53
2019-03-08T12:01:39.264Z,42.20
2019-03-08T12:04:24.660Z,21.57
2019-03-08T12:07:10.580Z,22.03
2019-03-08T12:10:02.922Z,22.43
2019-03-08T12:12:51.234Z,20.63
2019-03-08T12:15:39.052Z,25.40
2019-03-08T12:18:29.328Z,17.67
2019-03-08T12:21:02.722Z,17.50
2019-03-08T12:23:39.043Z,14.13
2019-03-08T12:26:30.991Z,25.07
2019-03-08T12:29:12.744Z,48.70
2019-03-08T12:31:46.294Z,23.43
2019-03-08T12:34:39.083Z,19.90
2019-03-08T12:37:20.218Z,21.90
2019-03-08T12:39:57.010Z,19.03
2019-03-08T12:42:44.380Z,19.13
2019-03-08T12:45:20.809Z,12.13
2019-03-08T12:47:59.218Z,21.93
2019-03-08T12:50:34.252Z,14.57
2019-03-08T12:53:26.838Z,14.23
2019-03-08T12:56:23.319Z,17.43
2019-03-08T12:59:01.155Z,15.53
2019-03-08T13:02:09.784Z,22.23
2019-03-08T13:05:06.654Z,15.87
2019-03-08T13:10:59.006Z,28.30
2019-03-08T13:13:34.325Z,34.93
2019-03-08T13:16:07.398Z,20.17
2019-03-08T13:18:50.393Z,15.10
2019-03-08T13:22:10.760Z,12.23
2019-03-08T13:24:06.854Z,20.47
2019-03-08T13:26:52.142Z,16.57
2019-03-08T13:29:25.202Z,27.07
2019-03-08T13:31:52.939Z,14.43
2019-03-08T13:34:24.842Z,47.17
2019-03-08T13:36:59.977Z,25.30
2019-03-08T13:39:45.703Z,18.93
2019-03-08T13:42:44.694Z,30.80
2019-03-08T13:45:16.787Z,23.97
2019-03-08T13:49:55.455Z,22.83
2019-03-08T13:50:50.745Z,31.57
2019-03-08T13:53:21.873Z,23.93
2019-03-08T13:56:04.126Z,19.10
2019-03-08T14:02:27.114Z,22.43
2019-03-08T14:05:12.078Z,33.17
2019-03-08T14:09:56.169Z,22.60
2019-03-08T14:10:42.581Z,25.93
2019-03-08T14:13:15.922Z,14.90
2019-03-08T14:15:46.539Z,25.20
2019-03-08T14:18:21.382Z,19.50
2019-03-08T14:20:52.395Z,15.00
2019-03-08T14:23:22.866Z,23.47
2019-03-08T14:25:53.615Z,23.47
2019-03-08T14:28:25.288Z,17.17
2019-03-08T14:31:13.957Z,10.87
2019-03-08T14:33:44.677Z,21.70
2019-03-08T14:36:15.226Z,10.97
2019-03-08T14:39:08.011Z,15.87
2019-03-08T14:41:40.940Z,10.13
2019-03-08T14:44:13.333Z,16.03
2019-03-08T14:46:45.506Z,19.90
2019-03-08T16:44:36.591Z,13.10
2019-03-08T20:50:19.728Z,15.47
2019-03-08T20:52:50.385Z,13.47
2019-03-08T20:55:20.804Z,16.43
2019-03-08T20:57:53.754Z,18.73
2019-03-08T21:00:28.607Z,23.43
2019-03-08T21:03:02.290Z,20.33
2019-03-08T21:05:38.820Z,19.63
2019-03-08T21:08:09.423Z,18.83
2019-03-08T21:10:41.663Z,15.10
2019-03-08T21:13:18.311Z,15.07
2019-03-08T21:15:55.534Z,25.60
2019-03-08T21:18:25.477Z,13.60
2019-03-08T21:20:56.203Z,18.00
2019-03-08T21:23:26.835Z,18.60
2019-03-08T21:25:58.448Z,12.37
2019-03-08T21:28:29.021Z,11.53
2019-03-08T21:33:51.544Z,16.10
2019-03-08T21:36:21.772Z,16.73
2019-03-08T21:38:52.651Z,19.27
2019-03-08T21:41:24.023Z,15.60
2019-03-08T21:43:54.604Z,19.47
2019-03-08T21:46:25.096Z,17.83
2019-03-08T21:48:55.539Z,20.60
2019-03-08T21:51:26.115Z,19.93
2019-03-08T21:54:03.220Z,14.47
2019-03-08T21:56:33.750Z,18.73
2019-03-08T21:59:24.730Z,19.17
2019-03-08T22:01:47.997Z,25.27
2019-03-08T22:04:30.359Z,20.27
2019-03-08T22:07:00.567Z,20.93
2019-03-08T22:09:43.459Z,14.40
2019-03-08T22:12:26.928Z,15.93
2019-03-08T22:15:00.365Z,19.90
2019-03-08T22:17:52.454Z,13.10
2019-03-08T22:20:32.030Z,13.20
2019-03-08T22:23:05.780Z,15.87
2019-03-08T22:25:37.898Z,11.70
2019-03-08T22:28:14.346Z,20.07
2019-03-08T22:30:51.888Z,24.23
2019-03-08T22:33:24.188Z,11.27
2019-03-08T22:35:57.101Z,18.43
2019-03-08T22:38:27.573Z,11.30
2019-03-08T22:40:58.013Z,14.50
2019-03-08T22:43:28.498Z,16.27
2019-03-08T22:46:00.178Z,12.47
2019-03-08T22:48:30.628Z,7.13
2019-03-08T22:51:02.351Z,10.63
2019-03-08T22:53:34.447Z,9.80
2019-03-08T22:56:10.717Z,8.40
2019-03-08T22:58:43.605Z,18.70
2019-03-08T23:01:14.762Z,14.03
2019-03-08T23:03:45.249Z,11.67
2019-03-08T23:06:16.797Z,12.27
2019-03-08T23:08:47.241Z,14.80
2019-03-08T23:11:17.767Z,17.60
2019-03-08T23:13:48.231Z,11.17
2019-03-08T23:16:18.625Z,11.33
2019-03-08T23:18:49.072Z,11.03
2019-03-08T23:21:19.520Z,10.57
2019-03-08T23:26:42.415Z,11.47
2019-03-08T23:29:17.523Z,10.73
2019-03-08T23:32:00.628Z,10.87
2019-03-08T23:34:31.571Z,6.63
2019-03-08T23:37:01.919Z,14.93
2019-03-08T23:39:32.401Z,11.00
2019-03-08T23:42:02.869Z,10.43
2019-03-08T23:44:33.297Z,9.30
2019-03-08T23:47:04.647Z,7.27
2019-03-08T23:49:35.011Z,13.30
2019-03-08T23:52:21.439Z,11.53
2019-03-08T23:54:51.898Z,11.87
2019-03-08T23:57:25.059Z,12.83
2019-03-08T23:59:55.542Z,8.53
